Time;durP1;ratioP1;P1;durP2;ratioP2;P2;SDS_P1;SDS_P2;PMS_P1;PMS_P2;Temp;Humidity;BMP_temperature;BMP_pressure;BME280_temperature;BME280_humidity;BME280_pressure;Samples;Min_cycle;Max_cycle;Signal;HPM_P1;HPM_P2
2023/03/12 00:00:14;;;;;;;6.22;3.22;;;;;;;;;;5013983;28;20033;-74
2023/03/12 00:02:39;;;;;;;5.35;2.92;;;;;;;;;;4997319;28;20072;-74
2023/03/12 00:05:05;;;;;;;5.00;2.92;;;;;;;;;;5014116;28;20035;-76
2023/03/12 00:07:30;;;;;;;5.15;2.97;;;;;;;;;;5001161;28;20101;-74
2023/03/12 00:09:56;;;;;;;8.35;3.17;;;;;;;;;;5002223;28;20045;-75
2023/03/12 00:12:21;;;;;;;7.38;3.10;;;;;;;;;;5007029;28;20026;-74
2023/03/12 00:14:46;;;;;;;5.60;2.95;;;;;;;;;;4997501;28;20367;-74
2023/03/12 00:17:12;;;;;;;6.85;3.10;;;;;;;;;;4987244;28;20041;-75
2023/03/12 00:19:37;;;;;;;7.03;3.20;;;;;;;;;;4997091;28;20394;-74
2023/03/12 00:22:02;;;;;;;6.93;2.90;;;;;;;;;;4985571;28;20398;-74
2023/03/12 00:24:28;;;;;;;6.50;3.30;;;;;;;;;;4993682;28;20049;-73
2023/03/12 00:26:53;;;;;;;5.30;2.75;;;;;;;;;;5012766;28;20029;-76
2023/03/12 00:29:18;;;;;;;5.72;3.03;;;;;;;;;;4999457;28;20442;-73
2023/03/12 00:31:44;;;;;;;7.93;2.95;;;;;;;;;;5012583;28;20425;-74
2023/03/12 00:34:10;;;;;;;5.15;2.60;;;;;;;;;;4999041;28;20052;-74
2023/03/12 00:36:35;;;;;;;5.28;2.70;;;;;;;;;;5012726;28;20018;-76
2023/03/12 00:39:01;;;;;;;5.55;3.35;;;;;;;;;;5007291;28;20402;-74
2023/03/12 00:41:26;;;;;;;6.10;3.10;;;;;;;;;;5018622;28;20021;-74
2023/03/12 00:43:52;;;;;;;6.22;2.70;;;;;;;;;;5014393;28;20018;-74
2023/03/12 00:46:18;;;;;;;4.30;2.45;;;;;;;;;;5005873;28;20531;-74
2023/03/12 00:48:44;;;;;;;6.93;2.90;;;;;;;;;;5004810;28;20018;-74
2023/03/12 00:51:09;;;;;;;5.20;2.90;;;;;;;;;;4993343;28;20159;-75
2023/03/12 00:53:35;;;;;;;6.07;2.65;;;;;;;;;;5012475;28;20112;-74
2023/03/12 00:56:01;;;;;;;6.13;2.92;;;;;;;;;;4993745;28;20030;-74
2023/03/12 00:58:26;;;;;;;7.05;2.72;;;;;;;;;;5005153;28;20637;-74
2023/03/12 01:00:52;;;;;;;6.68;3.00;;;;;;;;;;4987000;28;20030;-75
2023/03/12 01:03:17;;;;;;;5.50;2.75;;;;;;;;;;4993249;28;20033;-73
2023/03/12 01:05:43;;;;;;;7.70;2.88;;;;;;;;;;4995764;28;20092;-73
2023/03/12 01:08:09;;;;;;;5.97;3.22;;;;;;;;;;5012050;28;20014;-73
2023/03/12 01:10:36;;;;;;;5.40;3.10;;;;;;;;;;5001772;28;20017;-74
2023/03/12 01:13:02;;;;;;;4.07;2.58;;;;;;;;;;5014823;28;20022;-73
2023/03/12 01:15:28;;;;;;;5.30;2.97;;;;;;;;;;4996029;28;20045;-74
2023/03/12 01:17:53;;;;;;;6.47;3.08;;;;;;;;;;5006683;28;20105;-73
2023/03/12 01:20:18;;;;;;;4.65;2.60;;;;;;;;;;5021256;28;20044;-74
2023/03/12 01:22:44;;;;;;;5.78;2.92;;;;;;;;;;5008719;28;20462;-73
2023/03/12 01:25:10;;;;;;;6.30;2.85;;;;;;;;;;5014668;28;20061;-75
2023/03/12 01:27:35;;;;;;;7.53;2.90;;;;;;;;;;5000354;28;20116;-74
2023/03/12 01:30:02;;;;;;;5.72;2.85;;;;;;;;;;5026759;28;20096;-73
2023/03/12 01:32:28;;;;;;;10.63;3.58;;;;;;;;;;5013618;28;20536;-74
2023/03/12 01:34:53;;;;;;;5.00;2.60;;;;;;;;;;5009224;28;20030;-73
2023/03/12 01:37:19;;;;;;;7.75;3.05;;;;;;;;;;4991509;28;20036;-74
2023/03/12 01:39:45;;;;;;;6.10;2.88;;;;;;;;;;5005770;28;20022;-75
2023/03/12 01:42:10;;;;;;;4.63;2.80;;;;;;;;;;4993197;28;20099;-73
2023/03/12 01:44:51;;;;;;;7.18;2.75;;;;;;;;;;5008208;28;20080;-74
2023/03/12 01:47:16;;;;;;;6.93;2.90;;;;;;;;;;5007299;28;20022;-74
2023/03/12 01:49:42;;;;;;;6.60;2.40;;;;;;;;;;4995357;28;20021;-74
2023/03/12 01:52:12;;;;;;;6.75;2.63;;;;;;;;;;5004333;28;20379;-74
2023/03/12 01:54:42;;;;;;;4.47;2.30;;;;;;;;;;5014604;28;20434;-74
2023/03/12 01:57:12;;;;;;;5.43;2.53;;;;;;;;;;5015945;28;20110;-74
2023/03/12 01:59:45;;;;;;;5.55;2.53;;;;;;;;;;5007732;28;20042;-75
2023/03/12 02:02:11;;;;;;;4.45;2.45;;;;;;;;;;5008608;28;20508;-73
2023/03/12 02:04:38;;;;;;;6.30;2.70;;;;;;;;;;4989782;28;20679;-74
2023/03/12 02:07:07;;;;;;;4.95;2.78;;;;;;;;;;5010236;28;20105;-74
2023/03/12 02:09:35;;;;;;;7.43;2.80;;;;;;;;;;4999744;28;20117;-74
2023/03/12 02:12:01;;;;;;;5.72;2.45;;;;;;;;;;4998858;28;20390;-73
2023/03/12 02:14:27;;;;;;;4.65;2.42;;;;;;;;;;5010733;28;20029;-74
2023/03/12 02:16:53;;;;;;;5.70;2.63;;;;;;;;;;5012529;28;20033;-74
2023/03/12 02:19:43;;;;;;;4.97;2.85;;;;;;;;;;5010417;28;20437;-74
2023/03/12 02:22:09;;;;;;;5.85;2.70;;;;;;;;;;4999670;28;20398;-74
2023/03/12 02:24:38;;;;;;;7.05;2.88;;;;;;;;;;5013075;28;20036;-74
2023/03/12 02:27:04;;;;;;;7.38;2.80;;;;;;;;;;5018259;28;20022;-74
2023/03/12 02:29:32;;;;;;;4.65;2.50;;;;;;;;;;4995696;28;20032;-74
2023/03/12 02:32:01;;;;;;;6.47;2.67;;;;;;;;;;5006219;28;20107;-74
2023/03/12 02:34:26;;;;;;;5.13;2.40;;;;;;;;;;5005625;28;20033;-74
2023/03/12 02:36:52;;;;;;;6.28;2.60;;;;;;;;;;4995757;28;20586;-74
2023/03/12 02:39:18;;;;;;;5.18;2.78;;;;;;;;;;4989526;28;20116;-74
2023/03/12 02:41:47;;;;;;;4.93;2.50;;;;;;;;;;5006319;28;20036;-74
2023/03/12 02:44:21;;;;;;;4.10;2.13;;;;;;;;;;5007772;28;20029;-75
2023/03/12 02:46:50;;;;;;;4.03;2.13;;;;;;;;;;4991246;28;20022;-75
2023/03/12 02:49:17;;;;;;;4.70;2.40;;;;;;;;;;5011069;28;20382;-74
2023/03/12 02:51:44;;;;;;;5.72;2.85;;;;;;;;;;4998892;28;20068;-73
2023/03/12 02:54:10;;;;;;;5.85;2.50;;;;;;;;;;5011746;28;20037;-74
2023/03/12 02:56:36;;;;;;;5.63;2.45;;;;;;;;;;4994144;28;20022;-73
2023/03/12 02:59:03;;;;;;;4.57;2.33;;;;;;;;;;5014740;28;20378;-74
2023/03/12 03:01:28;;;;;;;6.43;2.63;;;;;;;;;;4990327;28;20026;-74
2023/03/12 03:03:54;;;;;;;5.60;2.53;;;;;;;;;;5010019;28;20072;-75
2023/03/12 03:06:20;;;;;;;6.47;2.38;;;;;;;;;;4992014;28;20060;-74
2023/03/12 03:08:45;;;;;;;4.78;2.28;;;;;;;;;;5010627;28;20030;-74
2023/03/12 03:11:11;;;;;;;4.35;2.40;;;;;;;;;;4998042;28;20033;-74
2023/03/12 03:13:36;;;;;;;4.60;2.50;;;;;;;;;;5011670;28;20026;-74
2023/03/12 03:16:02;;;;;;;4.65;2.17;;;;;;;;;;5021286;28;20051;-76
2023/03/12 03:18:29;;;;;;;3.92;2.55;;;;;;;;;;5011152;28;20049;-74
2023/03/12 03:21:01;;;;;;;5.35;2.20;;;;;;;;;;4994416;28;20025;-74
2023/03/12 03:23:26;;;;;;;6.78;2.80;;;;;;;;;;5011036;28;20029;-74
2023/03/12 03:25:52;;;;;;;7.45;2.60;;;;;;;;;;5010168;28;20027;-74
2023/03/12 03:28:19;;;;;;;6.75;2.88;;;;;;;;;;5000660;28;20561;-76
2023/03/12 03:30:44;;;;;;;7.63;2.78;;;;;;;;;;5012861;28;20030;-74
2023/03/12 03:33:10;;;;;;;6.28;2.65;;;;;;;;;;5017331;28;20160;-74
2023/03/12 03:35:35;;;;;;;5.65;2.42;;;;;;;;;;5006757;28;20026;-74
2023/03/12 03:38:01;;;;;;;9.02;2.45;;;;;;;;;;5004019;28;20056;-74
2023/03/12 03:40:26;;;;;;;4.82;2.58;;;;;;;;;;4995626;28;20033;-75
2023/03/12 03:42:52;;;;;;;7.53;2.38;;;;;;;;;;4993150;28;20021;-74
2023/03/12 03:45:18;;;;;;;5.82;2.72;;;;;;;;;;5009981;28;20080;-74
2023/03/12 03:47:44;;;;;;;5.35;2.45;;;;;;;;;;5005651;28;20025;-74
2023/03/12 03:50:10;;;;;;;5.43;3.08;;;;;;;;;;5014107;28;20080;-74
2023/03/12 03:52:35;;;;;;;4.55;2.42;;;;;;;;;;5008736;28;20108;-74
2023/03/12 03:55:00;;;;;;;6.07;2.83;;;;;;;;;;4996145;28;20064;-74
2023/03/12 03:57:27;;;;;;;5.82;2.75;;;;;;;;;;5009938;28;20025;-74
2023/03/12 03:59:52;;;;;;;6.00;2.80;;;;;;;;;;4993587;28;20119;-74
2023/03/12 04:02:18;;;;;;;5.95;2.80;;;;;;;;;;4996714;28;20136;-75
2023/03/12 04:04:43;;;;;;;6.80;3.20;;;;;;;;;;5002384;28;20069;-74
2023/03/12 04:07:09;;;;;;;6.13;2.90;;;;;;;;;;4994532;28;20045;-76
2023/03/12 04:09:35;;;;;;;5.60;2.63;;;;;;;;;;5009968;28;20038;-74
2023/03/12 04:12:01;;;;;;;6.32;2.72;;;;;;;;;;5008720;28;20033;-74
2023/03/12 04:14:26;;;;;;;6.55;3.15;;;;;;;;;;5006780;28;20029;-74
2023/03/12 04:16:51;;;;;;;5.45;2.80;;;;;;;;;;4992110;28;20030;-74
2023/03/12 04:19:17;;;;;;;5.70;2.75;;;;;;;;;;4991332;28;20030;-74
2023/03/12 04:21:42;;;;;;;6.30;2.88;;;;;;;;;;4996619;28;20451;-74
2023/03/12 04:24:13;;;;;;;5.30;2.95;;;;;;;;;;4993865;28;20034;-75
2023/03/12 04:26:38;;;;;;;5.03;2.90;;;;;;;;;;5013450;28;20111;-74
2023/03/12 04:29:04;;;;;;;5.18;3.33;;;;;;;;;;4985864;28;20163;-74
2023/03/12 04:31:29;;;;;;;8.07;3.35;;;;;;;;;;5007384;28;20029;-75
2023/03/12 04:33:54;;;;;;;6.72;3.17;;;;;;;;;;5017884;28;20104;-74
2023/03/12 04:36:20;;;;;;;6.07;3.00;;;;;;;;;;5009057;28;20037;-74
2023/03/12 04:38:45;;;;;;;5.55;3.30;;;;;;;;;;5015567;28;20033;-75
2023/03/12 04:41:13;;;;;;;6.63;3.40;;;;;;;;;;5014061;28;20033;-74
2023/03/12 04:43:38;;;;;;;5.50;3.13;;;;;;;;;;5019746;28;20030;-74
2023/03/12 04:46:05;;;;;;;6.45;3.60;;;;;;;;;;5009128;28;20544;-75
2023/03/12 04:48:30;;;;;;;5.72;3.20;;;;;;;;;;5014541;28;20465;-75
2023/03/12 04:50:56;;;;;;;6.60;3.30;;;;;;;;;;5008949;28;20028;-74
2023/03/12 04:53:22;;;;;;;5.43;2.97;;;;;;;;;;5018008;28;20057;-74
2023/03/12 04:55:47;;;;;;;7.40;3.20;;;;;;;;;;5007752;28;20100;-74
2023/03/12 04:58:12;;;;;;;4.85;2.63;;;;;;;;;;5008946;28;20026;-74
2023/03/12 05:00:39;;;;;;;5.07;2.83;;;;;;;;;;5007712;28;20138;-74
2023/03/12 05:03:04;;;;;;;5.78;3.00;;;;;;;;;;4998353;28;20021;-74
2023/03/12 05:05:30;;;;;;;5.10;2.95;;;;;;;;;;5019682;28;20044;-75
2023/03/12 05:07:55;;;;;;;7.82;2.80;;;;;;;;;;5004425;28;20095;-74
2023/03/12 05:10:20;;;;;;;5.15;2.65;;;;;;;;;;4999908;28;20037;-74
2023/03/12 05:12:46;;;;;;;5.68;2.75;;;;;;;;;;4991423;28;21809;-74
2023/03/12 05:15:11;;;;;;;5.68;2.95;;;;;;;;;;4994438;28;20034;-74
2023/03/12 05:17:36;;;;;;;5.18;2.63;;;;;;;;;;5014974;28;20022;-73
2023/03/12 05:20:04;;;;;;;6.40;2.83;;;;;;;;;;4998371;28;20038;-74
2023/03/12 05:22:30;;;;;;;6.28;2.65;;;;;;;;;;5006254;28;20026;-74
2023/03/12 05:24:55;;;;;;;5.97;2.72;;;;;;;;;;5014171;28;20502;-74
2023/03/12 05:27:20;;;;;;;5.53;2.85;;;;;;;;;;4994205;28;20037;-74
2023/03/12 05:29:46;;;;;;;7.70;2.95;;;;;;;;;;5012648;28;20025;-75
2023/03/12 05:32:11;;;;;;;5.63;2.88;;;;;;;;;;5010320;28;20030;-74
2023/03/12 05:34:36;;;;;;;7.13;2.88;;;;;;;;;;5011834;28;20042;-73
2023/03/12 05:37:02;;;;;;;7.07;3.15;;;;;;;;;;5013302;28;20126;-74
2023/03/12 05:39:27;;;;;;;6.72;2.42;;;;;;;;;;5022899;28;20461;-74
2023/03/12 05:41:56;;;;;;;6.18;3.00;;;;;;;;;;5007624;28;20034;-74
2023/03/12 05:44:25;;;;;;;5.63;2.60;;;;;;;;;;5012260;28;20032;-74
2023/03/12 05:46:52;;;;;;;7.60;3.05;;;;;;;;;;5019528;28;20026;-74
2023/03/12 05:49:18;;;;;;;6.65;2.95;;;;;;;;;;5013354;28;20034;-74
2023/03/12 05:51:45;;;;;;;4.75;2.47;;;;;;;;;;5008158;28;20021;-74
2023/03/12 05:54:10;;;;;;;8.73;2.85;;;;;;;;;;5002320;28;20026;-74
2023/03/12 05:56:36;;;;;;;5.18;2.50;;;;;;;;;;4995597;28;20030;-73
2023/03/12 05:59:01;;;;;;;5.85;2.75;;;;;;;;;;5011250;28;20072;-74
2023/03/12 06:01:28;;;;;;;6.00;2.70;;;;;;;;;;5011120;28;20076;-74
2023/03/12 06:03:54;;;;;;;7.18;2.50;;;;;;;;;;4989689;28;20042;-74
2023/03/12 06:06:20;;;;;;;5.38;2.85;;;;;;;;;;5015026;28;20061;-73
2023/03/12 06:08:45;;;;;;;4.88;2.63;;;;;;;;;;5015816;28;20026;-74
2023/03/12 06:11:11;;;;;;;4.97;2.60;;;;;;;;;;5013888;28;20040;-74
2023/03/12 06:13:36;;;;;;;5.57;2.53;;;;;;;;;;5010394;28;20139;-74
2023/03/12 06:16:08;;;;;;;6.72;2.90;;;;;;;;;;5010072;28;20120;-74
2023/03/12 06:18:34;;;;;;;4.13;2.30;;;;;;;;;;5005447;28;20088;-74
2023/03/12 06:21:15;;;;;;;4.68;2.50;;;;;;;;;;4993879;28;20021;-74
2023/03/12 06:23:41;;;;;;;7.55;2.80;;;;;;;;;;4993141;28;20473;-74
2023/03/12 06:26:08;;;;;;;7.60;3.15;;;;;;;;;;4996978;28;20034;-75
2023/03/12 06:28:34;;;;;;;5.50;2.58;;;;;;;;;;5006682;28;20609;-74
2023/03/12 06:31:00;;;;;;;6.90;2.53;;;;;;;;;;5007727;28;20045;-74
2023/03/12 06:33:25;;;;;;;5.95;2.90;;;;;;;;;;5012997;28;20030;-74
2023/03/12 06:35:58;;;;;;;6.57;2.95;;;;;;;;;;5008420;28;20138;-74
2023/03/12 06:38:24;;;;;;;7.47;2.83;;;;;;;;;;5005569;28;20038;-74
2023/03/12 06:41:04;;;;;;;6.55;2.60;;;;;;;;;;5008083;28;20091;-74
2023/03/12 06:43:31;;;;;;;6.22;2.67;;;;;;;;;;5007335;28;20455;-74
2023/03/12 06:45:58;;;;;;;8.52;3.70;;;;;;;;;;4990218;28;20041;-74
2023/03/12 06:48:25;;;;;;;7.18;3.00;;;;;;;;;;4993037;28;20017;-74
2023/03/12 06:50:51;;;;;;;5.97;2.70;;;;;;;;;;4991505;28;20029;-73
2023/03/12 06:53:18;;;;;;;6.68;2.88;;;;;;;;;;5023447;28;20032;-74
2023/03/12 06:55:44;;;;;;;5.82;2.60;;;;;;;;;;5008991;28;20061;-75
2023/03/12 06:58:09;;;;;;;8.75;3.10;;;;;;;;;;5015274;28;20113;-75
2023/03/12 07:00:35;;;;;;;7.25;2.90;;;;;;;;;;4997660;28;20133;-74
2023/03/12 07:03:00;;;;;;;7.45;3.30;;;;;;;;;;5013769;28;20022;-74
2023/03/12 07:05:26;;;;;;;6.45;2.78;;;;;;;;;;5017937;28;20030;-74
2023/03/12 07:07:51;;;;;;;6.28;3.05;;;;;;;;;;4999929;28;20385;-74
2023/03/12 07:10:17;;;;;;;7.28;3.30;;;;;;;;;;5013774;28;20440;-74
2023/03/12 07:12:44;;;;;;;5.53;2.90;;;;;;;;;;5014588;28;20045;-74
2023/03/12 07:15:10;;;;;;;8.27;3.22;;;;;;;;;;5013524;28;20029;-74
2023/03/12 07:17:36;;;;;;;6.03;3.17;;;;;;;;;;4994695;28;20473;-76
2023/03/12 07:20:02;;;;;;;6.13;2.92;;;;;;;;;;4983472;28;20122;-75
2023/03/12 07:22:27;;;;;;;7.20;3.03;;;;;;;;;;5010579;28;20035;-74
2023/03/12 07:24:52;;;;;;;7.70;3.20;;;;;;;;;;5007928;28;20026;-74
2023/03/12 07:27:18;;;;;;;5.43;3.08;;;;;;;;;;4995451;28;20404;-74
2023/03/12 07:29:43;;;;;;;7.25;3.38;;;;;;;;;;5010567;28;20053;-74
2023/03/12 07:32:08;;;;;;;6.07;3.28;;;;;;;;;;5010956;28;20434;-75
2023/03/12 07:34:34;;;;;;;6.80;3.47;;;;;;;;;;4989500;28;20135;-75
2023/03/12 07:37:00;;;;;;;6.22;3.03;;;;;;;;;;4993445;28;20026;-74
2023/03/12 07:39:25;;;;;;;7.78;3.72;;;;;;;;;;4989721;28;20021;-74
2023/03/12 07:41:51;;;;;;;7.13;3.35;;;;;;;;;;5007650;28;20121;-74
2023/03/12 07:44:16;;;;;;;8.55;3.60;;;;;;;;;;4990361;28;20033;-74
2023/03/12 07:46:42;;;;;;;8.98;3.45;;;;;;;;;;5001814;28;20113;-74
2023/03/12 07:49:07;;;;;;;6.65;3.63;;;;;;;;;;5008005;28;20034;-74
2023/03/12 07:51:32;;;;;;;9.07;3.30;;;;;;;;;;4996029;28;20486;-75
2023/03/12 07:53:58;;;;;;;7.47;3.83;;;;;;;;;;4999910;28;20058;-74
2023/03/12 07:56:23;;;;;;;9.07;4.10;;;;;;;;;;5016010;28;20026;-74
2023/03/12 07:58:48;;;;;;;8.20;3.53;;;;;;;;;;5004088;28;20033;-74
2023/03/12 08:01:14;;;;;;;7.25;3.90;;;;;;;;;;5007694;28;20061;-74
2023/03/12 08:03:40;;;;;;;6.53;3.85;;;;;;;;;;4996207;28;20030;-74
2023/03/12 08:06:06;;;;;;;7.43;3.92;;;;;;;;;;5014712;28;20036;-74
2023/03/12 08:08:31;;;;;;;9.20;4.60;;;;;;;;;;5011512;28;20025;-74
2023/03/12 08:10:58;;;;;;;10.18;4.55;;;;;;;;;;5002733;28;20025;-74
2023/03/12 08:13:24;;;;;;;9.48;4.55;;;;;;;;;;5005962;28;20030;-74
2023/03/12 08:15:50;;;;;;;10.70;4.57;;;;;;;;;;5001259;28;20367;-74
2023/03/12 08:18:16;;;;;;;9.00;4.45;;;;;;;;;;5006386;28;20044;-76
2023/03/12 08:20:42;;;;;;;6.47;4.13;;;;;;;;;;5012750;28;20022;-74
2023/03/12 08:23:07;;;;;;;6.93;3.72;;;;;;;;;;4996543;28;20045;-74
2023/03/12 08:25:33;;;;;;;8.52;4.43;;;;;;;;;;4996260;28;20481;-74
2023/03/12 08:27:58;;;;;;;6.45;4.13;;;;;;;;;;5013441;28;20022;-74
2023/03/12 08:30:23;;;;;;;10.82;4.55;;;;;;;;;;4995258;28;20049;-74
2023/03/12 08:32:49;;;;;;;8.15;4.20;;;;;;;;;;5009986;28;20026;-74
2023/03/12 08:35:14;;;;;;;8.93;4.18;;;;;;;;;;4998741;28;20026;-75
2023/03/12 08:37:40;;;;;;;6.93;4.22;;;;;;;;;;5010915;28;20036;-75
2023/03/12 08:40:12;;;;;;;11.02;4.40;;;;;;;;;;5009631;28;20037;-74
2023/03/12 08:42:42;;;;;;;6.95;3.92;;;;;;;;;;5008801;28;20034;-74
2023/03/12 08:45:08;;;;;;;6.30;4.40;;;;;;;;;;4994685;28;20034;-74
2023/03/12 08:47:34;;;;;;;7.78;4.00;;;;;;;;;;5014494;28;20029;-75
2023/03/12 08:50:00;;;;;;;7.45;4.32;;;;;;;;;;4992640;28;20024;-75
2023/03/12 08:52:25;;;;;;;8.07;4.22;;;;;;;;;;5003625;28;20573;-74
2023/03/12 08:54:50;;;;;;;7.88;4.32;;;;;;;;;;5009871;28;20389;-74
2023/03/12 08:57:16;;;;;;;7.97;3.97;;;;;;;;;;5009639;28;20026;-75
2023/03/12 08:59:41;;;;;;;7.50;4.57;;;;;;;;;;5013356;28;20457;-74
2023/03/12 09:02:10;;;;;;;7.60;4.47;;;;;;;;;;5014217;28;20033;-74
2023/03/12 09:04:36;;;;;;;7.78;4.43;;;;;;;;;;5015917;28;20022;-74
2023/03/12 09:07:01;;;;;;;6.70;4.38;;;;;;;;;;4992418;28;20444;-74
2023/03/12 09:09:26;;;;;;;9.18;4.85;;;;;;;;;;5014263;28;20053;-74
2023/03/12 09:11:52;;;;;;;8.65;4.70;;;;;;;;;;5009003;28;20469;-74
2023/03/12 09:14:17;;;;;;;8.73;4.65;;;;;;;;;;4997160;28;20124;-74
2023/03/12 09:16:42;;;;;;;7.53;5.13;;;;;;;;;;5015767;28;20029;-74
2023/03/12 09:19:08;;;;;;;9.25;5.57;;;;;;;;;;4993724;28;20501;-74
2023/03/12 09:21:33;;;;;;;9.65;5.45;;;;;;;;;;5013175;28;20754;-74
2023/03/12 09:23:59;;;;;;;9.65;5.18;;;;;;;;;;4993692;28;20032;-74
2023/03/12 09:26:24;;;;;;;9.10;5.60;;;;;;;;;;4997360;28;20036;-74
2023/03/12 09:28:49;;;;;;;9.98;5.82;;;;;;;;;;4992613;28;20041;-74
2023/03/12 09:31:15;;;;;;;10.40;6.07;;;;;;;;;;5010721;28;20034;-74
2023/03/12 09:33:40;;;;;;;11.98;6.40;;;;;;;;;;5012262;28;20516;-74
2023/03/12 09:36:06;;;;;;;10.73;6.32;;;;;;;;;;5015162;28;20037;-75
2023/03/12 09:38:34;;;;;;;13.25;6.70;;;;;;;;;;5008977;28;20037;-74
2023/03/12 09:40:59;;;;;;;13.60;7.22;;;;;;;;;;5021792;28;20436;-74
2023/03/12 09:43:31;;;;;;;12.95;7.40;;;;;;;;;;5011444;28;20030;-74
2023/03/12 09:45:57;;;;;;;13.98;6.88;;;;;;;;;;5019224;28;20507;-74
2023/03/12 09:48:36;;;;;;;13.60;7.47;;;;;;;;;;5017382;28;20034;-75
2023/03/12 09:51:07;;;;;;;14.13;7.97;;;;;;;;;;5013658;28;20398;-74
2023/03/12 09:53:39;;;;;;;13.52;7.85;;;;;;;;;;4995471;28;20452;-76
2023/03/12 09:56:12;;;;;;;16.83;7.75;;;;;;;;;;5016924;28;20022;-74
2023/03/12 09:58:38;;;;;;;16.25;7.80;;;;;;;;;;5007134;28;20036;-74
2023/03/12 10:02:02;;;;;;;13.88;8.30;;;;;;;;;;5006206;28;20119;-75
2023/03/12 10:04:30;;;;;;;11.68;7.25;;;;;;;;;;4908196;29;20556;-74
2023/03/12 10:07:22;;;;;;;13.43;8.20;;;;;;;;;;4984266;28;20034;-75
2023/03/12 10:10:02;;;;;;;13.15;7.78;;;;;;;;;;4999464;28;20042;-74
2023/03/12 10:12:39;;;;;;;13.23;8.25;;;;;;;;;;4996521;28;20064;-74
2023/03/12 10:15:20;;;;;;;12.98;7.43;;;;;;;;;;5009888;28;20056;-74
2023/03/12 10:17:52;;;;;;;12.52;7.70;;;;;;;;;;5010795;28;20128;-75
2023/03/12 10:20:51;;;;;;;13.23;6.88;;;;;;;;;;4997454;28;20034;-75
2023/03/12 10:23:41;;;;;;;14.05;7.72;;;;;;;;;;5015132;28;20379;-75
2023/03/12 10:26:24;;;;;;;15.60;7.88;;;;;;;;;;5004044;28;20030;-75
2023/03/12 10:28:54;;;;;;;12.75;7.70;;;;;;;;;;4996574;28;20018;-75
2023/03/12 10:31:56;;;;;;;13.65;7.88;;;;;;;;;;5006649;28;20033;-75
2023/03/12 10:34:41;;;;;;;14.50;7.90;;;;;;;;;;5000851;28;20029;-75
2023/03/12 10:37:30;;;;;;;12.63;7.30;;;;;;;;;;4989246;28;20029;-74
2023/03/12 10:39:56;;;;;;;12.32;6.43;;;;;;;;;;5013694;28;20030;-75
2023/03/12 10:42:24;;;;;;;12.98;6.80;;;;;;;;;;5001722;28;20038;-74
2023/03/12 10:44:53;;;;;;;14.52;7.10;;;;;;;;;;4989487;28;20410;-75
2023/03/12 10:47:36;;;;;;;13.98;6.40;;;;;;;;;;4973938;28;20513;-76
2023/03/12 10:50:21;;;;;;;;;;;;;;;;;;4981737;28;20052;-74
2023/03/12 10:52:49;;;;;;;13.48;5.85;;;;;;;;;;5005150;28;19929;-74
2023/03/12 10:55:23;;;;;;;13.20;5.38;;;;;;;;;;4991650;28;20036;-75
2023/03/12 10:57:49;;;;;;;12.60;5.60;;;;;;;;;;4988837;28;20081;-76
2023/03/12 11:00:24;;;;;;;13.32;5.75;;;;;;;;;;4988080;28;20498;-75
2023/03/12 11:03:02;;;;;;;11.13;4.82;;;;;;;;;;5001631;28;20654;-75
2023/03/12 11:05:35;;;;;;;17.70;5.07;;;;;;;;;;4999076;28;20064;-75
2023/03/12 11:08:01;;;;;;;12.25;4.50;;;;;;;;;;5006351;28;20382;-74
2023/03/12 11:10:46;;;;;;;12.57;4.85;;;;;;;;;;5010319;28;20022;-75
2023/03/12 11:13:33;;;;;;;12.52;5.00;;;;;;;;;;5003553;28;20065;-76
2023/03/12 11:16:01;;;;;;;15.77;3.78;;;;;;;;;;4979151;28;20018;-76
2023/03/12 11:18:32;;;;;;;14.07;3.90;;;;;;;;;;4988581;28;20056;-75
2023/03/12 11:21:10;;;;;;;14.98;3.65;;;;;;;;;;4988342;28;20033;-75
2023/03/12 11:23:37;;;;;;;17.73;4.15;;;;;;;;;;4986055;28;20045;-75
2023/03/12 11:26:10;;;;;;;13.23;4.03;;;;;;;;;;4990354;28;20053;-75
2023/03/12 11:28:40;;;;;;;11.82;3.72;;;;;;;;;;5003631;28;20026;-75
2023/03/12 11:31:14;;;;;;;12.50;3.33;;;;;;;;;;4993660;28;20029;-76
2023/03/12 11:33:39;;;;;;;13.77;3.42;;;;;;;;;;4987280;28;20037;-75
2023/03/12 11:36:08;;;;;;;11.55;3.47;;;;;;;;;;4985709;28;20510;-75
2023/03/12 11:38:39;;;;;;;15.18;3.90;;;;;;;;;;5002285;28;20113;-75
2023/03/12 11:41:23;;;;;;;15.43;3.97;;;;;;;;;;5003113;28;20061;-75
2023/03/12 11:44:12;;;;;;;15.73;3.47;;;;;;;;;;5001692;28;20025;-76
2023/03/12 11:46:53;;;;;;;17.45;4.07;;;;;;;;;;5003891;28;20021;-75
2023/03/12 11:49:36;;;;;;;17.00;4.30;;;;;;;;;;5001128;28;20124;-75
2023/03/12 11:52:08;;;;;;;;;;;;;;;;;;5010897;28;20041;-75
2023/03/12 11:55:04;;;;;;;17.13;4.13;;;;;;;;;;4993936;28;20375;-75
2023/03/12 11:57:51;;;;;;;14.85;4.25;;;;;;;;;;5004543;28;20036;-74
2023/03/12 12:00:21;;;;;;;17.80;4.47;;;;;;;;;;5007924;28;20065;-76
2023/03/12 12:02:59;;;;;;;15.57;4.50;;;;;;;;;;5000708;28;20088;-75
2023/03/12 12:05:43;;;;;;;16.98;4.53;;;;;;;;;;4996766;28;20071;-75
2023/03/12 12:08:25;;;;;;;14.20;4.38;;;;;;;;;;5015586;28;20032;-76
2023/03/12 12:11:09;;;;;;;18.10;4.77;;;;;;;;;;5001539;28;21946;-76
2023/03/12 12:14:06;;;;;;;20.42;5.13;;;;;;;;;;4991291;28;20025;-76
2023/03/12 12:17:08;;;;;;;14.45;4.38;;;;;;;;;;5004360;28;20116;-76
2023/03/12 12:19:48;;;;;;;16.67;5.25;;;;;;;;;;4973689;28;20041;-76
2023/03/12 12:22:33;;;;;;;16.05;4.45;;;;;;;;;;5011340;28;20040;-75
2023/03/12 12:25:20;;;;;;;13.25;4.30;;;;;;;;;;4985989;28;20504;-75
2023/03/12 12:28:10;;;;;;;16.35;4.40;;;;;;;;;;5012596;28;20053;-75
2023/03/12 12:31:22;;;;;;;16.30;3.45;;;;;;;;;;4983711;28;20033;-75
2023/03/12 12:34:12;;;;;;;12.43;2.95;;;;;;;;;;4961600;28;20502;-76
2023/03/12 12:36:37;;;;;;;11.90;2.25;;;;;;;;;;5010403;28;20449;-75
2023/03/12 12:39:18;;;;;;;14.85;3.30;;;;;;;;;;5009202;28;20069;-75
2023/03/12 12:41:51;;;;;;;12.90;2.70;;;;;;;;;;5011566;28;20041;-75
2023/03/12 12:44:21;;;;;;;18.33;3.72;;;;;;;;;;4992685;28;20445;-76
2023/03/12 12:46:52;;;;;;;15.23;3.70;;;;;;;;;;5010343;28;20029;-75
2023/03/12 12:49:23;;;;;;;14.85;3.85;;;;;;;;;;4995359;28;20033;-75
2023/03/12 12:51:55;;;;;;;11.07;3.65;;;;;;;;;;5009232;28;20703;-75
2023/03/12 12:54:33;;;;;;;13.63;4.37;;;;;;;;;;4994849;28;20109;-74
2023/03/12 12:57:08;;;;;;;14.95;4.47;;;;;;;;;;5013282;28;20408;-74
2023/03/12 13:00:03;;;;;;;16.85;4.93;;;;;;;;;;5008033;28;20470;-75
2023/03/12 13:02:32;;;;;;;10.75;4.28;;;;;;;;;;4995002;28;20034;-75
2023/03/12 13:04:58;;;;;;;15.93;3.63;;;;;;;;;;4991760;28;20517;-75
2023/03/12 13:07:23;;;;;;;14.45;3.60;;;;;;;;;;5008253;28;20056;-76
2023/03/12 13:09:58;;;;;;;15.20;3.67;;;;;;;;;;5006667;28;20026;-76
2023/03/12 13:12:48;;;;;;;13.73;3.20;;;;;;;;;;5009868;28;20034;-75
2023/03/12 13:15:29;;;;;;;16.77;3.35;;;;;;;;;;5010125;28;20033;-75
2023/03/12 13:17:57;;;;;;;15.73;3.35;;;;;;;;;;5013591;28;20465;-76
2023/03/12 13:20:40;;;;;;;15.88;3.78;;;;;;;;;;5007195;28;20866;-75
2023/03/12 13:23:18;;;;;;;16.75;3.58;;;;;;;;;;4991655;28;20037;-76
2023/03/12 13:26:03;;;;;;;14.27;3.28;;;;;;;;;;4988667;28;20044;-75
2023/03/12 13:28:34;;;;;;;23.42;4.03;;;;;;;;;;5008998;28;20438;-75
2023/03/12 13:31:23;;;;;;;14.10;3.22;;;;;;;;;;5011753;28;20513;-76
2023/03/12 13:33:50;;;;;;;13.40;3.15;;;;;;;;;;4996089;28;20030;-75
2023/03/12 13:36:15;;;;;;;13.93;3.40;;;;;;;;;;4982552;28;20029;-76
2023/03/12 13:39:07;;;;;;;13.50;2.90;;;;;;;;;;5006641;28;20041;-75
2023/03/12 13:41:49;;;;;;;14.90;2.83;;;;;;;;;;4972012;28;20056;-75
2023/03/12 13:44:27;;;;;;;16.42;2.45;;;;;;;;;;5011511;28;20473;-75
2023/03/12 13:47:05;;;;;;;14.85;2.35;;;;;;;;;;5007814;28;20029;-75
2023/03/12 13:49:45;;;;;;;11.68;2.30;;;;;;;;;;4998574;28;20044;-75
2023/03/12 13:52:13;;;;;;;17.45;3.05;;;;;;;;;;5006244;28;20032;-76
2023/03/12 13:54:46;;;;;;;16.75;2.30;;;;;;;;;;5006201;28;20532;-75
2023/03/12 13:57:22;;;;;;;;;;;;;;;;;;4999419;28;20034;-77
2023/03/12 13:59:49;;;;;;;10.95;1.80;;;;;;;;;;4997489;28;19921;-76
2023/03/12 14:02:26;;;;;;;12.80;1.75;;;;;;;;;;4959554;28;20276;-75
2023/03/12 14:04:53;;;;;;;14.77;2.13;;;;;;;;;;5004263;28;20153;-76
2023/03/12 14:07:47;;;;;;;13.63;1.83;;;;;;;;;;5005414;28;20037;-75
2023/03/12 14:10:18;;;;;;;11.35;2.15;;;;;;;;;;4969684;28;20128;-75
2023/03/12 14:12:53;;;;;;;10.93;2.05;;;;;;;;;;5008142;28;20025;-75
2023/03/12 14:15:28;;;;;;;11.75;1.80;;;;;;;;;;5005949;28;20444;-76
2023/03/12 14:17:58;;;;;;;10.23;2.03;;;;;;;;;;4994385;28;20496;-75
2023/03/12 14:20:23;;;;;;;15.77;2.28;;;;;;;;;;4985609;28;20040;-76
2023/03/12 14:22:54;;;;;;;20.27;2.20;;;;;;;;;;5002366;28;20030;-75
2023/03/12 14:25:30;;;;;;;17.52;2.60;;;;;;;;;;5003152;28;20030;-75
2023/03/12 14:27:56;;;;;;;10.10;2.00;;;;;;;;;;4985877;28;20026;-75
2023/03/12 14:30:37;;;;;;;13.20;1.95;;;;;;;;;;5010194;28;20040;-75
2023/03/12 14:33:13;;;;;;;13.48;1.92;;;;;;;;;;5087741;27;20251;-74
2023/03/12 14:35:57;;;;;;;18.77;2.85;;;;;;;;;;5072616;28;20119;-76
2023/03/12 14:38:33;;;;;;;13.85;2.72;;;;;;;;;;5074750;28;20115;-76
2023/03/12 14:41:19;;;;;;;12.40;2.75;;;;;;;;;;5075239;28;20037;-76
2023/03/12 14:43:45;;;;;;;15.52;2.17;;;;;;;;;;5088283;28;20244;-76
2023/03/12 14:46:20;;;;;;;11.65;2.40;;;;;;;;;;5083034;28;20031;-77
2023/03/12 14:48:51;;;;;;;12.13;2.30;;;;;;;;;;5066381;28;20067;-77
2023/03/12 14:51:25;;;;;;;14.55;2.65;;;;;;;;;;5083030;28;20028;-77
2023/03/12 14:53:51;;;;;;;16.23;2.50;;;;;;;;;;5086168;28;20027;-77